Time;durP1;ratioP1;P1;durP2;ratioP2;P2;SDS_P1;SDS_P2;PMS_P1;PMS_P2;Temp;Humidity;BMP_temperature;BMP_pressure;BME280_temperature;BME280_humidity;BME280_pressure;Samples;Min_cycle;Max_cycle;Signal;HPM_P1;HPM_P2
2024/02/24 00:00:22;;;;;;;;;;;;;;;;;;;;;
2024/02/24 00:04:46;;;;;;;10.00;5.30;;;;;;;6.44;93.48;98560.81;124111;1274;5434499;-70
2024/02/24 00:08:38;;;;;;;5.80;4.80;;;;;;;6.47;93.78;98559.06;126449;1299;114961;-65
2024/02/24 00:12:28;;;;;;;9.30;5.70;;;;;;;6.46;93.77;98560.49;126731;1295;115011;-64
2024/02/24 00:16:39;;;;;;;7.90;5.60;;;;;;;6.47;94.07;98549.13;125966;1303;114901;-64
2024/02/24 00:20:39;;;;;;;7.40;4.60;;;;;;;6.48;94.11;98534.69;125328;1304;129699;-65
2024/02/24 00:24:29;;;;;;;6.40;5.00;;;;;;;6.44;94.30;98526.75;125158;1311;115288;-63
2024/02/24 00:28:22;;;;;;;;;;;;;;;;;;;;;
2024/02/24 00:36:43;;;;;;;6.90;4.80;;;;;;;6.50;94.55;98529.06;126612;1295;635263;-64
2024/02/24 00:44:39;;;;;;;;;;;;;;;;;;;;;
2024/02/24 00:48:28;;;;;;;6.80;4.20;;;;;;;6.52;94.73;98522.16;122671;1300;5401718;-65
2024/02/24 00:52:18;;;;;;;5.50;4.80;;;;;;;6.55;94.92;98511.20;126221;1298;114904;-65
2024/02/24 00:56:13;;;;;;;;;;;;;;;;;;;;;
2024/02/24 01:00:07;;;;;;;;;;;;;;;;;;;;;
2024/02/24 01:08:08;;;;;;;8.70;6.60;;;;;;;6.61;95.16;98475.89;125738;1300;635741;-64
2024/02/24 01:12:02;;;;;;;;;;;;;;;;;;;;;
2024/02/24 01:16:05;;;;;;;8.40;5.40;;;;;;;6.56;95.18;98473.15;127362;1286;115141;-64
2024/02/24 01:24:08;;;;;;;;;;;;;;;;;;;;;
2024/02/24 01:32:31;;;;;;;6.90;4.80;;;;;;;6.69;95.74;98474.15;126563;1293;636158;-64
2024/02/24 01:36:22;;;;;;;7.00;4.90;;;;;;;6.72;95.94;98470.76;128423;1295;127686;-63
2024/02/24 01:40:14;;;;;;;7.50;5.50;;;;;;;6.76;96.29;98474.20;127921;1292;114916;-64
2024/02/24 01:44:18;;;;;;;;;;;;;;;;;;;;;
2024/02/24 01:48:22;;;;;;;9.40;6.20;;;;;;;6.84;96.44;98475.30;123828;1282;114960;-64
2024/02/24 01:52:25;;;;;;;9.10;6.00;;;;;;;6.87;96.50;98474.08;126826;1292;114950;-64
2024/02/24 01:56:26;;;;;;;7.70;4.90;;;;;;;6.87;96.23;98469.83;125949;1317;115028;-64
2024/02/24 02:00:28;;;;;;;7.20;4.50;;;;;;;6.86;96.09;98473.25;125314;1307;128248;-64
2024/02/24 02:04:28;;;;;;;5.40;3.90;;;;;;;6.85;96.15;98473.83;124906;1313;114928;-64
2024/02/24 02:12:52;;;;;;;6.30;4.00;;;;;;;6.84;96.09;98482.94;126661;1292;637162;-63
2024/02/24 02:16:43;;;;;;;6.70;4.80;;;;;;;6.82;96.55;98488.39;127680;1286;129179;-63
2024/02/24 02:20:44;;;;;;;5.50;3.80;;;;;;;6.82;96.39;98505.96;126850;1287;114824;-63
2024/02/24 02:24:48;;;;;;;5.10;3.30;;;;;;;6.80;96.13;98512.48;122755;1295;5448049;-64
2024/02/24 02:28:59;;;;;;;;;;;;;;;;;;;;;
2024/02/24 02:36:46;;;;;;;3.40;2.10;;;;;;;6.63;96.09;98513.70;126521;1295;635573;-65
2024/02/24 02:44:42;;;;;;;3.50;2.30;;;;;;;6.53;96.05;98522.85;128736;1277;114719;-64
2024/02/24 02:48:44;;;;;;;2.70;1.80;;;;;;;6.48;96.07;98540.84;127974;1282;114891;-64
2024/02/24 02:52:35;;;;;;;3.70;1.20;;;;;;;6.41;95.70;98531.88;122632;1299;114847;-63
2024/02/24 02:56:37;;;;;;;1.60;0.90;;;;;;;6.34;95.56;98539.22;126356;1299;114869;-63
2024/02/24 03:00:10;;;;;;;;;;;;;;;;;;;;;
2024/02/24 03:08:40;;;;;;;1.50;1.20;;;;;;;6.12;95.48;98547.44;125842;1297;638884;-63
2024/02/24 03:12:43;;;;;;;1.30;1.00;;;;;;;6.08;95.87;98565.07;128278;1277;129204;-65
2024/02/24 03:16:48;;;;;;;1.60;1.30;;;;;;;6.08;96.09;98563.98;127836;1283;114943;-63
2024/02/24 03:24:43;;;;;;;;;;;;;;;;;;;;;
2024/02/24 03:28:34;;;;;;;1.70;1.50;;;;;;;6.02;96.04;98580.29;126252;1304;115221;-63
2024/02/24 03:36:34;;;;;;;;;;;;;;;;;;;;;
2024/02/24 03:45:00;;;;;;;3.00;1.30;;;;;;;5.90;96.05;98605.77;126271;1295;636253;-64
2024/02/24 03:49:00;;;;;;;;;;;;;;;;;;;;;
2024/02/24 03:53:03;;;;;;;2.70;1.10;;;;;;;5.84;96.20;98603.82;128355;1276;115031;-63
2024/02/24 03:57:00;;;;;;;1.80;1.30;;;;;;;5.79;95.85;98614.75;123821;1286;5404170;-64
2024/02/24 04:00:54;;;;;;;;;;;;;;;;;;;;;
2024/02/24 04:04:54;;;;;;;;;;;;;;;;;;;;;
2024/02/24 04:08:57;;;;;;;2.40;1.80;;;;;;;5.60;95.89;98635.77;125738;1305;116535;-63
2024/02/24 04:17:18;;;;;;;2.00;1.20;;;;;;;5.57;95.94;98665.58;126655;1295;635915;-64
2024/02/24 04:21:22;;;;;;;2.50;1.30;;;;;;;5.50;95.97;98673.52;128164;1281;129065;-64
2024/02/24 04:25:23;;;;;;;1.60;0.90;;;;;;;5.47;96.02;98681.30;127635;1286;114868;-64
2024/02/24 04:29:24;;;;;;;1.70;1.00;;;;;;;5.42;95.84;98696.95;122056;1302;5493335;-65
2024/02/24 04:33:13;;;;;;;3.90;1.30;;;;;;;5.40;95.90;98720.30;125145;1321;115345;-65
2024/02/24 04:37:15;;;;;;;3.20;1.80;;;;;;;5.41;96.13;98722.20;124924;1314;115012;-64
2024/02/24 04:45:36;;;;;;;2.30;1.90;;;;;;;5.40;96.12;98731.11;126590;1295;635995;-63
2024/02/24 04:49:39;;;;;;;2.30;1.30;;;;;;;5.34;96.06;98739.71;128143;1283;128788;-64
2024/02/24 04:53:41;;;;;;;2.50;1.80;;;;;;;5.32;96.19;98753.11;127583;1302;114966;-66
2024/02/24 04:57:34;;;;;;;;;;;;;;;;;;;;;
2024/02/24 05:01:30;;;;;;;3.10;1.50;;;;;;;5.25;95.80;98762.32;125778;1301;114846;-73
2024/02/24 05:05:31;;;;;;;2.90;1.70;;;;;;;5.23;96.12;98757.30;125683;1301;115069;-70
2024/02/24 05:13:34;;;;;;;2.10;1.30;;;;;;;5.20;96.12;98770.04;124420;1311;115294;-70
2024/02/24 05:26:13;;;;;;;2.80;1.70;;;;;;;5.22;96.49;98783.71;127776;1282;128962;-69
2024/02/24 05:30:16;;;;;;;2.40;1.60;;;;;;;5.22;96.54;98786.89;127693;1285;114843;-66
2024/02/24 05:34:18;;;;;;;2.60;1.70;;;;;;;5.19;96.21;98782.99;122798;1293;5419109;-67
2024/02/24 05:38:19;;;;;;;3.60;3.00;;;;;;;5.16;96.27;98770.58;125984;1300;115059;-68
2024/02/24 05:42:24;;;;;;;3.90;3.00;;;;;;;5.13;96.41;98800.61;125344;1302;115144;-71
2024/02/24 05:54:53;;;;;;;6.30;4.00;;;;;;;5.04;96.16;98858.43;128327;1279;127735;-70
2024/02/24 05:59:00;;;;;;;4.30;3.00;;;;;;;5.00;96.47;98867.08;128225;1281;114942;-67
2024/02/24 06:03:02;;;;;;;5.30;3.20;;;;;;;5.01;96.50;98865.84;123731;1286;5436742;-68
2024/02/24 06:07:04;;;;;;;5.80;4.20;;;;;;;5.01;97.02;98865.61;126649;1294;115773;-65
2024/02/24 06:15:06;;;;;;;4.80;3.30;;;;;;;5.00;96.97;98878.42;125065;1326;114838;-64
2024/02/24 06:23:36;;;;;;;5.40;3.50;;;;;;;5.03;96.90;98882.00;125858;1300;641397;-71
2024/02/24 06:31:41;;;;;;;5.00;2.20;;;;;;;4.98;96.68;98901.34;127272;1307;115245;-65
2024/02/24 06:35:37;;;;;;;;;;;;;;;;;;;;;
2024/02/24 06:39:39;;;;;;;2.90;2.00;;;;;;;4.93;96.58;98912.06;125372;1308;114962;-66
2024/02/24 06:48:14;;;;;;;3.40;2.30;;;;;;;5.08;97.03;98911.30;125979;1301;639165;-65
2024/02/24 06:56:49;;;;;;;4.40;2.80;;;;;;;5.25;97.22;98912.43;126046;1299;637515;-69
2024/02/24 07:04:55;;;;;;;4.70;2.70;;;;;;;5.29;97.10;98928.84;128576;1281;114963;-68
2024/02/24 07:08:58;;;;;;;4.70;2.70;;;;;;;5.31;96.92;98930.72;124467;1281;5425948;-66
2024/02/24 07:13:05;;;;;;;4.60;2.70;;;;;;;5.37;96.83;98927.95;126798;1308;114891;-66
2024/02/24 07:25:10;;;;;;;8.40;3.90;;;;;;;5.61;97.07;98963.93;125687;1312;114868;-66
2024/02/24 07:29:11;;;;;;;4.70;3.50;;;;;;;5.72;96.76;98975.58;124970;1310;114847;-64
2024/02/24 07:33:12;;;;;;;4.70;3.20;;;;;;;5.88;97.11;98984.84;124400;1316;114821;-63
2024/02/24 07:41:47;;;;;;;4.00;2.80;;;;;;;6.50;97.68;98997.60;125780;1304;637432;-63
2024/02/24 07:58:36;;;;;;;4.00;2.00;;;;;;;7.76;96.67;99028.59;126174;1294;114907;-60
2024/02/24 08:07:11;;;;;;;3.50;2.00;;;;;;;8.66;95.96;99035.31;125301;1304;640788;-62
2024/02/24 08:11:13;;;;;;;4.00;2.30;;;;;;;9.06;95.03;99044.44;126448;1307;128426;-61
2024/02/24 08:15:13;;;;;;;3.80;2.10;;;;;;;9.39;94.55;99048.23;125351;1315;114987;-61
2024/02/24 08:19:12;;;;;;;;;;;;;;;;;;;;;
2024/02/24 08:27:48;;;;;;;2.80;1.30;;;;;;;10.15;92.62;99074.56;125338;1304;638424;-61
2024/02/24 08:36:24;;;;;;;2.80;1.60;;;;;;;10.29;91.36;99073.69;125378;1305;638057;-62
2024/02/24 08:40:26;;;;;;;3.60;1.30;;;;;;;10.22;90.65;99072.73;126286;1286;128937;-61
2024/02/24 08:44:19;;;;;;;2.70;1.30;;;;;;;10.14;90.38;99072.02;126502;1292;114955;-63
2024/02/24 08:48:19;;;;;;;;;;;;;;;;;;;;;
2024/02/24 08:52:21;;;;;;;3.00;2.00;;;;;;;10.03;90.04;99089.69;124310;1315;115877;-61
2024/02/24 08:55:38;;;;;;;;;;;;;;;;;;;;;
2024/02/24 08:59:38;;;;;;;;;;;;;;;;;;;;;
2024/02/24 09:03:28;;;;;;;;;;;;;;;;;;;;;
2024/02/24 09:07:23;;;;;;;;;;;;;;;;;;;;;
2024/02/24 09:11:27;;;;;;;5.20;1.70;;;;;;;9.92;89.59;99125.53;128038;1296;114911;-60
2024/02/24 09:15:54;;;;;;;2.30;1.30;;;;;;;9.87;88.78;99134.20;126492;1292;114928;-62
2024/02/24 09:19:31;;;;;;;4.10;1.80;;;;;;;9.86;89.01;99143.90;121502;1322;114953;-61
2024/02/24 09:23:18;;;;;;;3.40;1.60;;;;;;;9.86;88.86;99146.95;124723;1311;114966;-60
2024/02/24 09:31:51;;;;;;;3.10;1.40;;;;;;;9.94;88.57;99149.86;125493;1304;639531;-60
2024/02/24 09:35:54;;;;;;;3.50;1.90;;;;;;;10.01;88.11;99153.15;127568;1284;128711;-63
2024/02/24 09:43:52;;;;;;;2.40;1.50;;;;;;;10.17;87.65;99168.82;122046;1298;5408175;-61
2024/02/24 09:47:53;;;;;;;8.40;4.30;;;;;;;10.22;87.68;99176.70;125228;1319;114939;-63
2024/02/24 09:51:46;;;;;;;;;;;;;;;;;;;;;
2024/02/24 09:56:01;;;;;;;;;;;;;;;;;;;;;
2024/02/24 10:00:05;;;;;;;4.00;2.30;;;;;;;10.39;86.74;99201.20;127303;1303;128693;-61
2024/02/24 10:04:09;;;;;;;3.90;2.30;;;;;;;10.44;86.55;99207.58;125926;1295;114914;-61
2024/02/24 10:08:11;;;;;;;3.10;1.50;;;;;;;10.46;86.05;99211.90;121570;1320;5439231;-61
2024/02/24 10:17:13;;;;;;;1.80;1.10;;;;;;;10.51;85.11;99225.89;125442;1303;637569;-63
2024/02/24 10:20:54;;;;;;;4.00;1.10;;;;;;;10.52;85.02;99232.61;128445;1277;129578;-61
2024/02/24 10:24:54;;;;;;;2.00;1.10;;;;;;;10.54;84.10;99231.06;127273;1305;114891;-60
2024/02/24 10:37:37;;;;;;;;;;;;;;;;;;;;;
2024/02/24 10:41:40;;;;;;;3.70;1.50;;;;;;;10.54;83.25;99257.29;126377;1290;128778;-64
2024/02/24 10:45:24;;;;;;;;;;;;;;;10.54;83.22;99243.21;125823;1311;114988;-61
2024/02/24 10:49:03;;;;;;;;;;;;;;;;;;;;;
2024/02/24 10:53:05;;;;;;;2.50;1.30;;;;;;;10.54;81.86;99251.38;124352;1308;114947;-61
2024/02/24 11:05:43;;;;;;;2.90;1.20;;;;;;;10.59;80.56;99262.51;127342;1305;129905;-60
2024/02/24 11:09:47;;;;;;;3.20;1.60;;;;;;;10.61;80.87;99263.25;126510;1292;115297;-60
2024/02/24 11:13:51;;;;;;;2.70;2.00;;;;;;;10.63;79.82;99268.33;121606;1306;6234077;-61
2024/02/24 11:17:31;;;;;;;;;;;;;;;;;;;;;
2024/02/24 11:30:06;;;;;;;3.30;0.90;;;;;;;10.67;78.13;99289.46;128246;1280;128840;-62
2024/02/24 11:34:20;;;;;;;2.70;1.30;;;;;;;10.69;78.24;99285.92;127621;1303;114944;-61
2024/02/24 11:38:11;;;;;;;2.70;1.70;;;;;;;10.71;78.57;99292.45;123465;1287;5420874;-62
2024/02/24 11:42:13;;;;;;;1.80;1.50;;;;;;;10.73;78.16;99291.39;126958;1289;114873;-61
2024/02/24 11:46:14;;;;;;;2.50;1.20;;;;;;;10.75;77.82;99293.40;126284;1296;115866;-63
2024/02/24 11:49:57;;;;;;;;;;;;;;;;;;;;;
2024/02/24 11:53:59;;;;;;;3.40;1.20;;;;;;;10.63;76.16;99299.92;125078;1324;128190;-61
2024/02/24 12:06:36;;;;;;;3.00;1.20;;;;;;;10.64;75.45;99319.33;127148;1298;128544;-60
2024/02/24 12:10:38;;;;;;;;;;;;;;;;;;;;;
2024/02/24 12:14:42;;;;;;;2.30;0.90;;;;;;;10.63;75.08;99325.41;121944;1311;5434028;-61
2024/02/24 12:23:15;;;;;;;;;;;;;;;;;;;;;
2024/02/24 12:27:21;;;;;;;2.10;1.00;;;;;;;10.62;72.45;99342.83;126683;1290;129023;-62
2024/02/24 12:31:21;;;;;;;3.10;1.30;;;;;;;10.57;72.39;99344.39;125636;1297;114794;-71
2024/02/24 12:40:01;;;;;;;2.70;1.60;;;;;;;10.61;72.14;99352.54;125284;1299;639768;-63
2024/02/24 12:44:01;;;;;;;;;;;;;;;;;;;;;
2024/02/24 12:48:36;;;;;;;4.70;2.00;;;;;;;10.64;71.25;99362.32;125029;1300;636909;-62
2024/02/24 12:57:06;;;;;;;3.60;2.70;;;;;;;10.67;71.20;99361.27;126398;1290;636991;-63
2024/02/24 13:01:06;;;;;;;;;;;;;;;;;;;;;
2024/02/24 13:05:10;;;;;;;1.80;1.50;;;;;;;10.60;71.36;99370.65;126610;1308;114852;-62
2024/02/24 13:09:13;;;;;;;3.50;2.10;;;;;;;10.52;70.07;99369.91;122052;1296;5439150;-64
2024/02/24 13:17:46;;;;;;;3.50;2.10;;;;;;;10.46;70.17;99368.47;125222;1315;638743;-64
2024/02/24 13:21:47;;;;;;;;;;;;;;;;;;;;;
2024/02/24 13:25:51;;;;;;;4.10;2.30;;;;;;;10.42;70.10;99375.92;126059;1298;114953;-61
2024/02/24 13:29:50;;;;;;;;;;;;;;;;;;;;;
2024/02/24 13:38:14;;;;;;;5.10;2.60;;;;;;;10.33;69.73;99383.77;125708;1298;636912;-62
2024/02/24 13:42:17;;;;;;;5.60;3.30;;;;;;;10.32;69.99;99383.24;127480;1290;127904;-63
2024/02/24 13:46:22;;;;;;;8.30;3.80;;;;;;;10.32;69.67;99390.25;126360;1292;114865;-65
2024/02/24 13:50:14;;;;;;;5.10;3.10;;;;;;;10.30;69.37;99392.70;121895;1302;5429707;-64
2024/02/24 13:53:52;;;;;;;3.80;2.40;;;;;;;10.26;68.84;99396.70;125409;1299;114931;-63
2024/02/24 13:57:55;;;;;;;4.60;2.00;;;;;;;10.23;68.73;99398.65;124906;1304;114945;-64
2024/02/24 14:01:16;;;;;;;;;;;;;;;;;;;;;
2024/02/24 14:05:03;;;;;;;3.60;1.80;;;;;;;10.17;68.31;99409.14;123578;1335;114989;-64
2024/02/24 14:17:07;;;;;;;5.20;1.70;;;;;;;10.21;68.01;99424.27;128868;1283;128433;-63
2024/02/24 14:21:10;;;;;;;3.30;2.20;;;;;;;10.18;67.89;99429.08;128365;1275;115160;-65
2024/02/24 14:25:11;;;;;;;3.90;2.60;;;;;;;10.16;68.00;99424.77;123236;1305;5440657;-67
2024/02/24 14:33:33;;;;;;;3.10;1.60;;;;;;;10.14;67.64;99430.65;126196;1304;636904;-63
2024/02/24 14:37:27;;;;;;;;;;;;;;;;;;;;;
2024/02/24 14:41:29;;;;;;;3.60;1.80;;;;;;;10.09;67.69;99432.02;126524;1287;114909;-64
2024/02/24 14:45:44;;;;;;;;;;;;;;;;;;;;;
2024/02/24 14:49:35;;;;;;;3.10;1.60;;;;;;;10.04;67.22;99440.65;125218;1321;114938;-63
2024/02/24 14:58:03;;;;;;;3.60;1.90;;;;;;;9.98;66.86;99456.34;125615;1299;638596;-64
2024/02/24 15:02:06;;;;;;;3.00;1.50;;;;;;;9.89;66.80;99461.02;127833;1281;128237;-63
2024/02/24 15:10:15;;;;;;;4.00;1.40;;;;;;;9.75;66.89;99472.53;123152;1287;5406710;-63
2024/02/24 15:14:16;;;;;;;2.10;1.30;;;;;;;9.70;66.77;99473.19;126113;1295;114897;-63
2024/02/24 15:18:02;;;;;;;4.20;1.70;;;;;;;9.66;66.58;99479.34;124825;1317;114872;-63
2024/02/24 15:25:20;;;;;;;;;;;;;;;;;;;;;
2024/02/24 15:29:20;;;;;;;;;;;;;;;;;;;;;
2024/02/24 15:33:47;;;;;;;20.60;14.50;;;;;;;9.54;66.77;99494.66;125856;1299;636048;-63
2024/02/24 15:37:35;;;;;;;;;;;;;;;;;;;;;
2024/02/24 15:41:21;;;;;;;16.60;10.60;;;;;;;9.37;66.73;99510.77;127971;1276;114846;-65
2024/02/24 15:45:44;;;;;;;10.90;5.70;;;;;;;9.26;66.82;99515.31;123330;1300;5406237;-63
2024/02/24 15:49:45;;;;;;;6.90;3.20;;;;;;;9.14;66.78;99521.66;126329;1295;114944;-63
2024/02/24 15:53:46;;;;;;;8.10;5.10;;;;;;;9.04;66.96;99520.27;125519;1302;114960;-63
2024/02/24 16:06:25;;;;;;;5.30;3.30;;;;;;;8.74;67.47;99537.60;127334;1286;129083;-61
2024/02/24 16:10:20;;;;;;;;;;;;;;;;;;;;;
2024/02/24 16:14:10;;;;;;;5.70;4.00;;;;;;;8.52;67.26;99552.09;120825;1313;5427617;-61
2024/02/24 16:18:06;;;;;;;;;;;;;;;;;;;;;
2024/02/24 16:22:34;;;;;;;5.90;2.90;;;;;;;8.30;67.81;99553.37;125718;1295;638548;-64
2024/02/24 16:26:26;;;;;;;5.20;2.50;;;;;;;8.14;68.02;99556.53;127204;1288;128728;-62
2024/02/24 16:30:18;;;;;;;7.40;3.20;;;;;;;8.02;68.08;99562.66;126627;1293;114857;-64
2024/02/24 16:34:22;;;;;;;9.10;3.70;;;;;;;7.90;68.45;99562.35;123754;1311;5393242;-62
2024/02/24 16:38:15;;;;;;;;;;;;;;;;;;;;;
2024/02/24 16:46:28;;;;;;;7.60;3.10;;;;;;;7.63;69.10;99575.76;125587;1299;638472;-63
2024/02/24 16:50:31;;;;;;;8.80;3.70;;;;;;;7.51;69.17;99576.03;126944;1286;128926;-64
2024/02/24 16:54:35;;;;;;;10.40;5.20;;;;;;;7.48;69.38;99580.27;126603;1305;114773;-65
2024/02/24 16:58:15;;;;;;;;;;;;;;;7.41;69.53;99576.47;121439;1311;5478530;-65
2024/02/24 17:10:51;;;;;;;;;;;;;;;;;;;;;
2024/02/24 17:14:59;;;;;;;8.20;5.20;;;;;;;6.96;71.03;99588.70;127773;1284;129200;-64
2024/02/24 17:26:56;;;;;;;;;;;;;;;;;;;;;
2024/02/24 17:30:57;;;;;;;;;;;;;;;;;;;;;
2024/02/24 17:39:34;;;;;;;12.80;5.80;;;;;;;6.48;72.41;99608.59;125343;1299;637403;-67
2024/02/24 17:43:45;;;;;;;14.20;6.10;;;;;;;6.41;72.79;99616.70;126677;1290;129162;-65
2024/02/24 17:47:28;;;;;;;12.10;5.90;;;;;;;6.37;73.02;99617.92;125944;1302;114878;-65
2024/02/24 17:51:31;;;;;;;15.00;7.60;;;;;;;6.34;73.44;99617.70;121741;1307;5416576;-66
2024/02/24 17:59:56;;;;;;;15.30;8.80;;;;;;;6.31;73.62;99622.46;126597;1293;635993;-65
2024/02/24 18:07:48;;;;;;;11.80;6.10;;;;;;;6.25;73.92;99635.48;129107;1274;115323;-64
2024/02/24 18:11:50;;;;;;;15.50;7.70;;;;;;;6.24;74.20;99645.99;125271;1275;5427167;-66
2024/02/24 18:15:44;;;;;;;17.30;8.50;;;;;;;6.21;74.13;99653.92;127626;1279;114877;-64
2024/02/24 18:23:47;;;;;;;18.20;8.90;;;;;;;6.13;74.36;99659.05;126289;1311;114789;-63
2024/02/24 18:27:49;;;;;;;12.90;6.40;;;;;;;6.08;74.30;99659.44;125654;1301;129716;-64
2024/02/24 18:31:48;;;;;;;;;;;;;;;;;;;;;
2024/02/24 18:40:51;;;;;;;10.60;4.60;;;;;;;6.05;74.54;99674.27;127895;1284;127612;-66
2024/02/24 18:44:19;;;;;;;;;;;;;;;;;;;;;
2024/02/24 18:52:49;;;;;;;14.40;8.10;;;;;;;5.95;74.99;99675.35;127974;1276;127862;-63
2024/02/24 18:56:35;;;;;;;16.90;8.40;;;;;;;5.90;74.87;99677.83;126551;1287;114773;-63
2024/02/24 19:00:27;;;;;;;12.00;6.00;;;;;;;5.86;74.99;99676.23;122456;1292;5508894;-63
2024/02/24 19:04:16;;;;;;;;;;;;;;;;;;;;;
2024/02/24 19:08:27;;;;;;;14.30;7.20;;;;;;;5.79;75.43;99672.27;125892;1306;636381;-62
2024/02/24 19:16:17;;;;;;;;;;;;;;;5.69;75.67;99675.85;128075;1277;114910;-61
2024/02/24 19:20:18;;;;;;;;;;;;;;;;;;;;;
2024/02/24 19:24:23;;;;;;;13.80;7.60;;;;;;;5.56;75.85;99678.83;123602;1303;114979;-61
2024/02/24 19:28:26;;;;;;;14.70;7.80;;;;;;;5.49;75.96;99678.73;126372;1311;115176;-62
2024/02/24 19:32:26;;;;;;;15.10;8.50;;;;;;;5.45;75.94;99673.59;125463;1319;114876;-62
2024/02/24 19:40:42;;;;;;;18.80;10.20;;;;;;;5.44;76.43;99672.02;126032;1296;635871;-60
2024/02/24 19:44:34;;;;;;;;;;;;;;;;;;;;;
2024/02/24 19:48:38;;;;;;;21.40;10.60;;;;;;;5.40;76.51;99671.47;127525;1302;114936;-62
2024/02/24 20:00:49;;;;;;;28.80;15.60;;;;;;;5.34;76.80;99677.19;124331;1323;114965;-61
2024/02/24 20:09:19;;;;;;;23.10;12.40;;;;;;;5.28;76.66;99679.55;125752;1302;638393;-65
2024/02/24 20:13:21;;;;;;;27.20;12.40;;;;;;;5.18;76.91;99686.27;128144;1299;128954;-66
2024/02/24 20:17:23;;;;;;;;;;;;;;;;;;;;;
2024/02/24 20:21:27;;;;;;;27.90;16.90;;;;;;;5.06;77.09;99683.53;123865;1282;5399857;-64
2024/02/24 20:25:23;;;;;;;;;;;;;;;;;;;;;
2024/02/24 20:29:25;;;;;;;116.40;73.90;;;;;;;4.93;77.46;99680.27;127318;1289;115571;-68
2024/02/24 20:33:36;;;;;;;;;;;;;;;;;;;;;
2024/02/24 20:37:18;;;;;;;30.20;16.20;;;;;;;4.81;77.68;99693.10;125750;1303;127591;-64
2024/02/24 20:45:57;;;;;;;;;;;;;;;;;;;;;
2024/02/24 20:50:01;;;;;;;36.80;18.20;;;;;;;4.56;77.85;99691.33;126173;1296;128624;-64
2024/02/24 20:54:01;;;;;;;;;;;;;;;;;;;;;
2024/02/24 20:57:39;;;;;;;;;;;;;;;;;;;;;
2024/02/24 21:06:05;;;;;;;45.60;22.60;;;;;;;4.21;78.46;99690.73;125557;1302;637990;-64
2024/02/24 21:09:59;;;;;;;50.10;23.00;;;;;;;4.10;78.78;99692.84;128698;1276;127865;-64
2024/02/24 21:13:54;;;;;;;53.00;25.40;;;;;;;4.01;78.93;99691.20;128042;1294;115528;-65
2024/02/24 21:17:29;;;;;;;50.50;26.80;;;;;;;3.92;79.00;99695.20;124242;1299;5447009;-66
2024/02/24 21:21:34;;;;;;;53.90;26.30;;;;;;;3.86;79.15;99695.94;127483;1302;114984;-64
2024/02/24 21:25:36;;;;;;;55.60;28.40;;;;;;;3.77;79.40;99698.31;126260;1294;115560;-65
2024/02/24 21:29:17;;;;;;;;;;;;;;;3.69;79.41;99701.20;125663;1302;129821;-67
2024/02/24 21:37:43;;;;;;;57.90;30.80;;;;;;;3.60;79.77;99702.02;126316;1290;635790;-67
2024/02/24 21:41:17;;;;;;;;;;;;;;;;;;;;;
2024/02/24 21:44:53;;;;;;;65.50;33.60;;;;;;;3.48;80.04;99697.95;128283;1280;115011;-64
2024/02/24 21:48:55;;;;;;;;;;;;;;;;;;;;;
2024/02/24 21:53:01;;;;;;;54.10;21.70;;;;;;;3.43;81.16;99702.70;122334;1307;114874;-65
2024/02/24 21:56:50;;;;;;;;;;;;;;;;;;;;;
2024/02/24 22:01:18;;;;;;;31.50;17.40;;;;;;;3.39;81.63;99693.12;124344;1316;114943;-66
2024/02/24 22:04:54;;;;;;;;;;;;;;;;;;;;;
2024/02/24 22:08:46;;;;;;;33.60;17.70;;;;;;;3.38;81.70;99690.67;124436;1311;114889;-63
2024/02/24 22:17:18;;;;;;;;;;;;;;;;;;;;;
2024/02/24 22:20:56;;;;;;;;;;;;;;;;;;;;;
2024/02/24 22:25:00;;;;;;;67.90;28.40;;;;;;;3.28;81.79;99699.78;126853;1292;114939;-66
2024/02/24 22:32:29;;;;;;;54.30;26.10;;;;;;;3.21;81.91;99695.59;123872;1313;114968;-65
2024/02/24 22:40:39;;;;;;;57.70;24.30;;;;;;;3.13;81.76;99697.58;125559;1295;636189;-63
2024/02/24 22:44:21;;;;;;;59.30;25.10;;;;;;;3.04;81.77;99698.89;128272;1280;128864;-63
2024/02/24 22:48:25;;;;;;;59.20;25.30;;;;;;;2.98;81.87;99701.17;128059;1281;114923;-65
2024/02/24 22:52:10;;;;;;;71.20;29.20;;;;;;;2.92;81.92;99704.15;126238;1282;5445709;-68
2024/02/24 22:55:52;;;;;;;;;;;;;;;2.87;82.17;99709.05;126218;1297;115443;-64
2024/02/24 22:59:53;;;;;;;68.20;28.40;;;;;;;2.82;82.12;99707.09;126206;1308;114959;-64
2024/02/24 23:03:27;;;;;;;65.10;27.50;;;;;;;2.76;82.14;99714.83;125762;1301;129967;-64
2024/02/24 23:20:06;;;;;;;57.00;25.00;;;;;;;2.56;82.48;99714.46;126979;1290;128904;-64
2024/02/24 23:24:07;;;;;;;48.90;24.70;;;;;;;2.53;82.40;99718.08;125709;1302;115057;-63
2024/02/24 23:27:52;;;;;;;50.20;23.90;;;;;;;2.48;82.66;99722.95;120551;1314;5467330;-64
2024/02/24 23:36:11;;;;;;;32.10;18.30;;;;;;;2.42;82.59;99722.91;125985;1308;638468;-65
2024/02/24 23:40:14;;;;;;;27.20;14.00;;;;;;;2.38;83.07;99729.02;128396;1281;128273;-64
2024/02/24 23:44:17;;;;;;;24.80;12.00;;;;;;;2.41;84.07;99734.77;127603;1285;114921;-65
2024/02/24 23:48:11;;;;;;;;;;;;;;;;;;;;;
2024/02/24 23:52:01;;;;;;;14.30;7.20;;;;;;;2.50;84.52;99733.48;125715;1305;114862;-69
2024/02/24 23:56:03;;;;;;;21.20;10.80;;;;;;;2.55;84.83;99740.58;125402;1305;114915;-66
